Time;durP1;ratioP1;P1;durP2;ratioP2;P2;SDS_P1;SDS_P2;PMS_P1;PMS_P2;Temp;Humidity;BMP_temperature;BMP_pressure;BME280_temperature;BME280_humidity;BME280_pressure;Samples;Min_cycle;Max_cycle;Signal;HPM_P1;HPM_P2
2023/02/17 00:00:29;;;;;;;3.67;0.70;;;;;;;;;;5004275;28;20030;-63
2023/02/17 00:02:56;;;;;;;3.25;0.43;;;;;;;;;;5001593;28;20045;-64
2023/02/17 00:05:23;;;;;;;1.35;0.50;;;;;;;;;;5001455;28;20520;-63
2023/02/17 00:07:50;;;;;;;2.45;0.50;;;;;;;;;;5013670;28;20120;-63
2023/02/17 00:10:16;;;;;;;4.50;0.60;;;;;;;;;;5012879;28;20037;-63
2023/02/17 00:12:43;;;;;;;8.52;1.00;;;;;;;;;;5014961;28;20052;-63
2023/02/17 00:15:10;;;;;;;1.02;0.43;;;;;;;;;;5010028;28;20068;-63
2023/02/17 00:17:36;;;;;;;0.45;0.30;;;;;;;;;;5011496;28;20041;-62
2023/02/17 00:20:03;;;;;;;0.75;0.30;;;;;;;;;;5003583;28;20042;-63
2023/02/17 00:22:30;;;;;;;2.42;0.60;;;;;;;;;;5011915;28;20046;-63
2023/02/17 00:24:57;;;;;;;2.30;0.60;;;;;;;;;;5011618;28;20049;-63
2023/02/17 00:27:24;;;;;;;4.63;0.50;;;;;;;;;;5003993;28;20083;-62
2023/02/17 00:29:50;;;;;;;1.65;0.45;;;;;;;;;;5001818;28;20128;-63
2023/02/17 00:32:17;;;;;;;1.77;0.50;;;;;;;;;;5003428;28;20050;-63
2023/02/17 00:34:44;;;;;;;1.42;0.50;;;;;;;;;;5003499;28;20040;-62
2023/02/17 00:37:10;;;;;;;1.58;0.50;;;;;;;;;;5004403;28;20164;-63
2023/02/17 00:39:37;;;;;;;3.83;0.47;;;;;;;;;;5003098;28;21294;-61
2023/02/17 00:42:04;;;;;;;3.05;0.80;;;;;;;;;;5003948;28;20132;-63
2023/02/17 00:44:30;;;;;;;2.85;0.60;;;;;;;;;;5010275;28;20036;-62
2023/02/17 00:46:57;;;;;;;1.85;0.70;;;;;;;;;;5013808;28;20045;-62
2023/02/17 00:49:25;;;;;;;3.22;0.63;;;;;;;;;;5006391;28;20083;-60
2023/02/17 00:51:52;;;;;;;2.72;0.60;;;;;;;;;;5006451;28;20141;-62
2023/02/17 00:54:19;;;;;;;2.17;0.60;;;;;;;;;;5006937;28;20113;-61
2023/02/17 00:56:46;;;;;;;2.60;0.80;;;;;;;;;;5015930;28;20037;-61
2023/02/17 00:59:13;;;;;;;3.70;0.68;;;;;;;;;;5016679;28;20041;-62
2023/02/17 01:01:40;;;;;;;2.22;0.63;;;;;;;;;;5007473;28;20053;-63
2023/02/17 01:04:06;;;;;;;3.03;0.80;;;;;;;;;;5007813;28;20404;-63
2023/02/17 01:06:35;;;;;;;1.90;0.60;;;;;;;;;;5006732;28;20490;-62
2023/02/17 01:09:02;;;;;;;3.25;0.70;;;;;;;;;;5006874;28;20038;-62
2023/02/17 01:11:30;;;;;;;2.13;0.60;;;;;;;;;;5004937;28;20601;-63
2023/02/17 01:13:57;;;;;;;2.45;0.60;;;;;;;;;;5008419;28;20074;-63
2023/02/17 01:16:25;;;;;;;5.63;0.90;;;;;;;;;;5007071;28;20449;-62
2023/02/17 01:18:52;;;;;;;1.88;0.57;;;;;;;;;;5007462;28;20045;-63
2023/02/17 01:21:19;;;;;;;2.65;0.70;;;;;;;;;;5006703;28;20490;-62
2023/02/17 01:23:46;;;;;;;3.85;0.70;;;;;;;;;;5007941;28;20748;-62
2023/02/17 01:26:13;;;;;;;1.60;0.60;;;;;;;;;;5004041;28;20046;-62
2023/02/17 01:28:40;;;;;;;3.75;0.80;;;;;;;;;;5007066;28;20089;-61
2023/02/17 01:31:08;;;;;;;1.65;0.60;;;;;;;;;;5006435;28;22047;-62
2023/02/17 01:33:34;;;;;;;4.53;0.63;;;;;;;;;;5007019;28;20081;-62
2023/02/17 01:36:02;;;;;;;4.78;0.60;;;;;;;;;;5007611;28;20042;-62
2023/02/17 01:38:28;;;;;;;3.70;0.70;;;;;;;;;;5007275;28;20029;-62
2023/02/17 01:40:55;;;;;;;2.17;0.68;;;;;;;;;;5006840;28;20139;-65
2023/02/17 01:43:22;;;;;;;2.28;0.63;;;;;;;;;;5006732;28;20132;-63
2023/02/17 01:45:52;;;;;;;1.95;0.50;;;;;;;;;;5004055;28;20042;-62
2023/02/17 01:48:21;;;;;;;1.17;0.50;;;;;;;;;;5007832;28;20069;-62
2023/02/17 01:50:52;;;;;;;2.97;0.60;;;;;;;;;;5017889;28;20060;-62
2023/02/17 01:53:25;;;;;;;1.75;0.50;;;;;;;;;;5017064;28;20132;-62
2023/02/17 01:55:51;;;;;;;2.55;0.68;;;;;;;;;;5017990;28;20097;-64
2023/02/17 01:58:19;;;;;;;1.30;0.57;;;;;;;;;;5011429;28;20077;-61
2023/02/17 02:00:47;;;;;;;2.28;0.60;;;;;;;;;;5018569;28;20048;-61
2023/02/17 02:03:14;;;;;;;2.17;0.60;;;;;;;;;;5011490;28;20073;-66
2023/02/17 02:05:41;;;;;;;2.05;0.60;;;;;;;;;;5006007;28;20116;-65
2023/02/17 02:08:09;;;;;;;3.90;0.60;;;;;;;;;;5006728;28;20041;-65
2023/02/17 02:10:35;;;;;;;5.38;0.70;;;;;;;;;;5004295;28;20541;-65
2023/02/17 02:13:03;;;;;;;3.72;0.70;;;;;;;;;;5004121;28;20133;-64
2023/02/17 02:15:33;;;;;;;6.43;0.75;;;;;;;;;;5006811;28;20099;-67
2023/02/17 02:18:00;;;;;;;6.45;0.60;;;;;;;;;;5007351;28;20038;-65
2023/02/17 02:20:35;;;;;;;1.67;0.50;;;;;;;;;;5005659;28;20065;-64
2023/02/17 02:23:02;;;;;;;2.88;0.60;;;;;;;;;;5005579;28;20034;-65
2023/02/17 02:25:51;;;;;;;3.17;0.70;;;;;;;;;;5006207;28;20261;-64
2023/02/17 02:28:18;;;;;;;2.80;0.80;;;;;;;;;;5001998;28;20057;-64
2023/02/17 02:30:44;;;;;;;2.75;0.73;;;;;;;;;;5007709;28;20084;-65
2023/02/17 02:33:37;;;;;;;1.58;0.45;;;;;;;;;;5005797;28;20060;-64
2023/02/17 02:36:16;;;;;;;1.75;0.52;;;;;;;;;;5004381;28;21819;-66
2023/02/17 02:38:59;;;;;;;2.33;0.60;;;;;;;;;;5003460;28;20037;-63
2023/02/17 02:41:33;;;;;;;2.60;0.55;;;;;;;;;;5003945;28;20050;-64
2023/02/17 02:44:02;;;;;;;3.63;0.68;;;;;;;;;;5004938;28;20046;-64
2023/02/17 02:46:29;;;;;;;6.60;0.80;;;;;;;;;;5004445;28;20054;-64
2023/02/17 02:48:56;;;;;;;2.65;0.50;;;;;;;;;;5005778;28;20050;-63
2023/02/17 02:51:34;;;;;;;2.47;0.60;;;;;;;;;;5012975;28;20036;-63
2023/02/17 02:54:20;;;;;;;2.20;0.63;;;;;;;;;;5014516;28;20149;-62
2023/02/17 02:57:05;;;;;;;1.20;0.50;;;;;;;;;;5002614;28;20462;-63
2023/02/17 02:59:49;;;;;;;1.77;0.60;;;;;;;;;;5013204;28;20112;-67
2023/02/17 03:02:26;;;;;;;4.05;0.75;;;;;;;;;;5012498;28;20490;-64
2023/02/17 03:04:58;;;;;;;5.65;0.63;;;;;;;;;;5017371;28;20183;-67
2023/02/17 03:07:31;;;;;;;1.42;0.50;;;;;;;;;;5008345;28;20059;-66
2023/02/17 03:09:59;;;;;;;1.30;0.40;;;;;;;;;;4988117;28;20060;-66
2023/02/17 03:12:26;;;;;;;3.63;0.70;;;;;;;;;;5005103;28;20108;-65
2023/02/17 03:14:55;;;;;;;1.67;0.50;;;;;;;;;;5005404;28;20041;-66
2023/02/17 03:17:22;;;;;;;1.58;0.60;;;;;;;;;;5003143;28;20046;-62
2023/02/17 03:19:49;;;;;;;2.13;0.60;;;;;;;;;;5003888;28;20625;-64
2023/02/17 03:22:29;;;;;;;4.43;0.57;;;;;;;;;;5005248;28;20354;-63
2023/02/17 03:24:58;;;;;;;1.55;0.50;;;;;;;;;;5001041;28;20046;-64
2023/02/17 03:27:25;;;;;;;1.48;0.50;;;;;;;;;;5005551;28;20479;-62
2023/02/17 03:29:52;;;;;;;1.42;0.50;;;;;;;;;;5005363;28;20049;-63
2023/02/17 03:32:19;;;;;;;1.15;0.40;;;;;;;;;;5004515;28;20049;-63
2023/02/17 03:34:46;;;;;;;1.52;0.60;;;;;;;;;;5015390;28;20056;-63
2023/02/17 03:37:12;;;;;;;3.65;0.65;;;;;;;;;;5010992;28;20037;-64
2023/02/17 03:39:39;;;;;;;6.45;0.70;;;;;;;;;;5005311;28;20461;-63
2023/02/17 03:42:06;;;;;;;1.95;0.70;;;;;;;;;;5003974;28;20045;-63
2023/02/17 03:44:32;;;;;;;2.63;0.70;;;;;;;;;;5005536;28;20045;-64
2023/02/17 03:46:59;;;;;;;2.53;0.60;;;;;;;;;;5003108;28;20042;-64
2023/02/17 03:49:26;;;;;;;1.60;0.50;;;;;;;;;;5003597;28;20461;-63
2023/02/17 03:51:52;;;;;;;1.95;0.60;;;;;;;;;;5003047;28;20041;-63
2023/02/17 03:54:19;;;;;;;1.30;0.47;;;;;;;;;;5005654;28;20030;-62
2023/02/17 03:56:46;;;;;;;1.45;0.47;;;;;;;;;;5004702;28;20109;-64
2023/02/17 03:59:12;;;;;;;3.72;0.50;;;;;;;;;;5004142;28;20498;-64
2023/02/17 04:01:39;;;;;;;3.13;0.50;;;;;;;;;;4987180;28;20413;-62
2023/02/17 04:04:05;;;;;;;1.20;0.60;;;;;;;;;;5005539;28;20076;-61
2023/02/17 04:06:32;;;;;;;2.20;0.70;;;;;;;;;;5003683;28;20041;-63
2023/02/17 04:08:59;;;;;;;4.55;0.60;;;;;;;;;;5004506;28;20041;-65
2023/02/17 04:11:25;;;;;;;1.90;0.50;;;;;;;;;;4999974;28;20037;-63
2023/02/17 04:13:52;;;;;;;1.52;0.40;;;;;;;;;;5005071;28;20073;-65
2023/02/17 04:16:19;;;;;;;8.27;0.88;;;;;;;;;;5004417;28;20041;-67
2023/02/17 04:18:45;;;;;;;8.85;0.68;;;;;;;;;;5004047;28;20091;-63
2023/02/17 04:21:12;;;;;;;2.08;0.52;;;;;;;;;;5002616;28;20057;-63
2023/02/17 04:23:38;;;;;;;1.92;0.60;;;;;;;;;;5005991;28;20041;-63
2023/02/17 04:26:06;;;;;;;2.25;0.70;;;;;;;;;;5015099;28;20156;-63
2023/02/17 04:28:33;;;;;;;1.23;0.50;;;;;;;;;;5004122;28;20816;-64
2023/02/17 04:31:00;;;;;;;4.78;0.80;;;;;;;;;;5004084;28;20383;-65
2023/02/17 04:33:26;;;;;;;4.82;0.75;;;;;;;;;;5002969;28;20696;-63
2023/02/17 04:35:58;;;;;;;1.75;0.50;;;;;;;;;;5003620;28;20037;-63
2023/02/17 04:38:28;;;;;;;2.63;0.70;;;;;;;;;;5006332;28;20053;-63
2023/02/17 04:40:56;;;;;;;4.85;0.88;;;;;;;;;;5010265;28;20160;-63
2023/02/17 04:43:23;;;;;;;1.15;0.60;;;;;;;;;;5007593;28;20164;-63
2023/02/17 04:45:50;;;;;;;2.25;0.60;;;;;;;;;;5007949;28;20045;-63
2023/02/17 04:48:17;;;;;;;3.22;0.50;;;;;;;;;;5005004;28;20053;-64
2023/02/17 04:50:43;;;;;;;3.30;0.70;;;;;;;;;;5004024;28;20041;-63
2023/02/17 04:53:10;;;;;;;4.60;0.70;;;;;;;;;;5006080;28;20495;-62
2023/02/17 04:55:37;;;;;;;2.03;0.70;;;;;;;;;;5004871;28;20037;-63
2023/02/17 04:58:04;;;;;;;1.38;0.50;;;;;;;;;;5005686;28;20041;-62
2023/02/17 05:00:30;;;;;;;1.65;0.50;;;;;;;;;;5004654;28;20044;-62
2023/02/17 05:02:57;;;;;;;4.60;0.80;;;;;;;;;;5004091;28;20534;-62
2023/02/17 05:05:24;;;;;;;1.95;0.57;;;;;;;;;;5004472;28;20075;-62
2023/02/17 05:07:51;;;;;;;1.60;0.50;;;;;;;;;;5006177;28;20080;-62
2023/02/17 05:10:18;;;;;;;1.27;0.40;;;;;;;;;;5004537;28;20043;-61
2023/02/17 05:12:44;;;;;;;1.80;0.50;;;;;;;;;;5003325;28;20081;-61
2023/02/17 05:15:11;;;;;;;1.50;0.50;;;;;;;;;;5005069;28;20038;-62
2023/02/17 05:17:38;;;;;;;1.52;0.40;;;;;;;;;;5004711;28;20138;-63
2023/02/17 05:20:05;;;;;;;0.95;0.40;;;;;;;;;;5005079;28;20128;-62
2023/02/17 05:22:32;;;;;;;1.42;0.50;;;;;;;;;;5003932;28;20080;-62
2023/02/17 05:24:58;;;;;;;1.95;0.60;;;;;;;;;;5007067;28;20079;-62
2023/02/17 05:27:25;;;;;;;1.80;0.50;;;;;;;;;;5005359;28;20521;-62
2023/02/17 05:29:52;;;;;;;2.90;0.43;;;;;;;;;;5006128;28;20045;-62
2023/02/17 05:32:18;;;;;;;1.33;0.50;;;;;;;;;;5005503;28;20142;-62
2023/02/17 05:34:45;;;;;;;1.55;0.50;;;;;;;;;;5007876;28;20038;-61
2023/02/17 05:37:11;;;;;;;0.95;0.40;;;;;;;;;;5008725;28;20034;-62
2023/02/17 05:39:38;;;;;;;0.98;0.40;;;;;;;;;;5009116;28;20104;-62
2023/02/17 05:42:05;;;;;;;2.22;0.50;;;;;;;;;;5009779;28;20045;-63
2023/02/17 05:44:31;;;;;;;1.58;0.63;;;;;;;;;;5009978;28;20041;-63
2023/02/17 05:46:58;;;;;;;1.08;0.40;;;;;;;;;;5008726;28;20876;-63
2023/02/17 05:49:25;;;;;;;0.93;0.40;;;;;;;;;;5009771;28;20188;-62
2023/02/17 05:51:51;;;;;;;1.65;0.52;;;;;;;;;;5008263;28;20037;-62
2023/02/17 05:54:18;;;;;;;3.58;0.57;;;;;;;;;;5007928;28;20079;-63
2023/02/17 05:56:44;;;;;;;2.00;0.43;;;;;;;;;;5021542;28;20072;-62
2023/02/17 05:59:11;;;;;;;1.25;0.47;;;;;;;;;;5020788;28;20047;-62
2023/02/17 06:01:38;;;;;;;1.17;0.50;;;;;;;;;;4996204;28;20034;-62
2023/02/17 06:04:04;;;;;;;1.58;0.50;;;;;;;;;;5008907;28;20432;-63
2023/02/17 06:06:31;;;;;;;2.20;0.60;;;;;;;;;;5007511;28;20092;-62
2023/02/17 06:08:58;;;;;;;1.92;0.60;;;;;;;;;;5007707;28;20045;-62
2023/02/17 06:11:24;;;;;;;1.88;0.50;;;;;;;;;;5005631;28;20402;-63
2023/02/17 06:13:51;;;;;;;2.45;0.63;;;;;;;;;;5007783;28;20053;-62
2023/02/17 06:16:17;;;;;;;1.48;0.60;;;;;;;;;;5007434;28;21640;-62
2023/02/17 06:18:44;;;;;;;2.17;0.68;;;;;;;;;;5017630;28;20041;-62
2023/02/17 06:21:11;;;;;;;2.75;0.70;;;;;;;;;;5018859;28;20029;-63
2023/02/17 06:23:37;;;;;;;4.72;0.60;;;;;;;;;;5007215;28;20064;-62
2023/02/17 06:26:04;;;;;;;4.25;0.60;;;;;;;;;;5007607;28;20510;-63
2023/02/17 06:28:31;;;;;;;2.05;0.60;;;;;;;;;;4988637;28;20050;-63
2023/02/17 06:30:57;;;;;;;3.08;0.60;;;;;;;;;;5006147;28;20033;-61
2023/02/17 06:33:24;;;;;;;5.45;0.75;;;;;;;;;;5006248;28;20052;-63
2023/02/17 06:35:51;;;;;;;2.55;0.60;;;;;;;;;;5008467;28;20042;-63
2023/02/17 06:38:18;;;;;;;2.50;0.60;;;;;;;;;;5007609;28;20542;-63
2023/02/17 06:40:45;;;;;;;4.85;1.00;;;;;;;;;;5005865;28;20203;-63
2023/02/17 06:43:11;;;;;;;3.42;0.80;;;;;;;;;;5008198;28;20979;-62
2023/02/17 06:45:38;;;;;;;2.10;0.60;;;;;;;;;;5004839;28;20042;-62
2023/02/17 06:48:05;;;;;;;3.00;0.90;;;;;;;;;;5006821;28;20389;-63
2023/02/17 06:50:31;;;;;;;1.73;0.70;;;;;;;;;;5006376;28;20525;-63
2023/02/17 06:52:58;;;;;;;2.97;0.80;;;;;;;;;;5012732;28;21723;-63
2023/02/17 06:55:25;;;;;;;1.30;0.45;;;;;;;;;;5017110;28;20116;-63
2023/02/17 06:57:51;;;;;;;4.82;0.60;;;;;;;;;;5006198;28;20046;-63
2023/02/17 07:00:18;;;;;;;2.40;0.60;;;;;;;;;;5006321;28;20049;-63
2023/02/17 07:02:45;;;;;;;2.40;0.60;;;;;;;;;;5005807;28;20498;-63
2023/02/17 07:05:11;;;;;;;4.07;0.65;;;;;;;;;;5006417;28;20045;-63
2023/02/17 07:07:38;;;;;;;2.55;0.60;;;;;;;;;;5006404;28;20038;-63
2023/02/17 07:10:05;;;;;;;1.35;0.50;;;;;;;;;;5007381;28;20052;-63
2023/02/17 07:12:32;;;;;;;2.65;0.68;;;;;;;;;;5003999;28;20538;-63
2023/02/17 07:14:58;;;;;;;6.00;0.80;;;;;;;;;;5005987;28;20858;-63
2023/02/17 07:17:25;;;;;;;2.03;0.60;;;;;;;;;;5006644;28;20042;-62
2023/02/17 07:19:51;;;;;;;1.92;0.60;;;;;;;;;;5005693;28;20996;-62
2023/02/17 07:22:18;;;;;;;4.50;0.60;;;;;;;;;;5005398;28;20127;-63
2023/02/17 07:24:45;;;;;;;1.58;0.50;;;;;;;;;;5006468;28;20099;-62
2023/02/17 07:27:11;;;;;;;2.03;0.50;;;;;;;;;;5007511;28;20673;-63
2023/02/17 07:29:38;;;;;;;1.83;0.60;;;;;;;;;;5005227;28;20065;-63
2023/02/17 07:32:05;;;;;;;2.80;0.60;;;;;;;;;;5005391;28;20041;-63
2023/02/17 07:34:31;;;;;;;2.83;0.40;;;;;;;;;;5004651;28;20038;-62
2023/02/17 07:36:58;;;;;;;2.55;0.70;;;;;;;;;;5004923;28;20451;-63
2023/02/17 07:39:24;;;;;;;3.78;0.52;;;;;;;;;;5005332;28;20117;-63
2023/02/17 07:41:51;;;;;;;3.97;0.60;;;;;;;;;;5004211;28;20037;-63
2023/02/17 07:44:18;;;;;;;2.83;0.57;;;;;;;;;;5005535;28;20372;-63
2023/02/17 07:46:44;;;;;;;1.05;0.40;;;;;;;;;;5004563;28;20054;-63
2023/02/17 07:49:12;;;;;;;2.70;0.50;;;;;;;;;;5005949;28;20045;-63
2023/02/17 07:51:38;;;;;;;1.95;0.60;;;;;;;;;;5002868;28;20042;-64
2023/02/17 07:54:05;;;;;;;0.88;0.32;;;;;;;;;;5005898;28;20383;-63
2023/02/17 07:56:32;;;;;;;2.35;0.60;;;;;;;;;;5005883;28;20041;-63
2023/02/17 07:58:59;;;;;;;3.00;0.52;;;;;;;;;;5005779;28;21987;-63
2023/02/17 08:01:26;;;;;;;2.08;0.50;;;;;;;;;;5004079;28;20124;-63
2023/02/17 08:03:52;;;;;;;1.30;0.50;;;;;;;;;;5006272;28;20037;-63
2023/02/17 08:06:21;;;;;;;1.77;0.60;;;;;;;;;;5004503;28;20041;-63
2023/02/17 08:14:20;;;;;;;1.50;0.50;;;;;;;;;;5005354;28;20056;-63
2023/02/17 08:16:46;;;;;;;1.85;0.52;;;;;;;;;;5005305;28;20045;-63
2023/02/17 08:19:13;;;;;;;1.75;0.40;;;;;;;;;;5005722;28;20500;-62
2023/02/17 08:21:40;;;;;;;1.85;0.50;;;;;;;;;;5009619;28;20390;-63
2023/02/17 08:24:07;;;;;;;1.10;0.47;;;;;;;;;;5010170;28;20080;-63
2023/02/17 08:26:34;;;;;;;1.67;0.60;;;;;;;;;;5005191;28;21811;-63
2023/02/17 08:29:01;;;;;;;1.30;0.50;;;;;;;;;;5004006;28;20576;-62
2023/02/17 08:31:29;;;;;;;3.60;0.60;;;;;;;;;;5003952;28;20045;-62
2023/02/17 08:33:56;;;;;;;2.17;0.50;;;;;;;;;;5005399;28;20112;-63
2023/02/17 08:36:24;;;;;;;1.77;0.47;;;;;;;;;;5004903;28;20041;-63
2023/02/17 08:38:51;;;;;;;2.50;0.70;;;;;;;;;;5005554;28;20113;-64
2023/02/17 08:41:21;;;;;;;2.00;0.70;;;;;;;;;;5003802;28;20128;-63
2023/02/17 08:43:48;;;;;;;1.60;0.57;;;;;;;;;;5010739;28;20038;-63
2023/02/17 08:46:15;;;;;;;1.52;0.50;;;;;;;;;;5005846;28;20042;-65
2023/02/17 08:48:42;;;;;;;1.13;0.40;;;;;;;;;;5007394;28;20168;-63
2023/02/17 08:51:13;;;;;;;1.35;0.50;;;;;;;;;;5006791;28;20577;-64
2023/02/17 08:53:39;;;;;;;1.67;0.50;;;;;;;;;;5009067;28;20429;-64
2023/02/17 08:56:06;;;;;;;3.00;0.50;;;;;;;;;;5008997;28;20046;-63
2023/02/17 08:58:33;;;;;;;1.55;0.50;;;;;;;;;;5005206;28;20045;-63
2023/02/17 09:01:00;;;;;;;4.30;0.88;;;;;;;;;;5005509;28;20843;-63
2023/02/17 09:03:27;;;;;;;3.47;0.82;;;;;;;;;;5003991;28;20068;-63
2023/02/17 09:05:54;;;;;;;1.85;0.60;;;;;;;;;;5005159;28;20042;-63
2023/02/17 09:08:22;;;;;;;3.53;0.60;;;;;;;;;;5006125;28;20124;-63
2023/02/17 09:10:49;;;;;;;2.70;0.50;;;;;;;;;;5008186;28;20037;-63
2023/02/17 09:13:16;;;;;;;3.00;0.80;;;;;;;;;;5010587;28;20072;-62
2023/02/17 09:15:43;;;;;;;5.90;0.65;;;;;;;;;;5010959;28;20540;-62
2023/02/17 09:18:09;;;;;;;6.63;0.85;;;;;;;;;;5012032;28;20049;-63
2023/02/17 09:20:38;;;;;;;2.40;0.80;;;;;;;;;;5009188;28;20042;-63
2023/02/17 09:23:05;;;;;;;2.17;0.70;;;;;;;;;;5012035;28;20068;-63
2023/02/17 09:25:32;;;;;;;1.75;0.60;;;;;;;;;;5010429;28;20501;-62
2023/02/17 09:27:59;;;;;;;3.60;0.70;;;;;;;;;;5011678;28;20565;-62
2023/02/17 09:30:25;;;;;;;3.63;0.80;;;;;;;;;;5011210;28;20034;-62
2023/02/17 09:32:52;;;;;;;6.00;0.52;;;;;;;;;;5010300;28;20051;-62
2023/02/17 09:35:18;;;;;;;6.22;0.60;;;;;;;;;;5008904;28;20136;-62
2023/02/17 09:37:45;;;;;;;1.15;0.50;;;;;;;;;;5006758;28;20548;-62
2023/02/17 09:40:20;;;;;;;2.80;0.77;;;;;;;;;;5008838;28;20041;-63
2023/02/17 09:42:47;;;;;;;1.02;0.40;;;;;;;;;;5008896;28;20038;-62
2023/02/17 09:45:20;;;;;;;1.35;0.50;;;;;;;;;;5008133;28;20038;-62
2023/02/17 09:47:49;;;;;;;1.90;0.65;;;;;;;;;;5010527;28;20371;-63
2023/02/17 09:50:24;;;;;;;0.90;0.40;;;;;;;;;;5009271;28;20048;-63
2023/02/17 09:52:54;;;;;;;1.25;0.50;;;;;;;;;;5020954;28;20045;-63
2023/02/17 09:55:46;;;;;;;3.78;0.60;;;;;;;;;;5013002;28;20042;-64
2023/02/17 09:58:20;;;;;;;1.63;0.52;;;;;;;;;;5018922;28;20037;-62
2023/02/17 10:00:48;;;;;;;2.30;0.65;;;;;;;;;;5015644;28;20049;-62
2023/02/17 10:03:18;;;;;;;2.20;0.57;;;;;;;;;;5009280;28;20123;-62
2023/02/17 10:06:03;;;;;;;2.10;0.40;;;;;;;;;;5008425;28;20052;-62
2023/02/17 10:08:40;;;;;;;2.95;0.57;;;;;;;;;;5007959;28;20045;-61
2023/02/17 10:11:19;;;;;;;1.30;0.50;;;;;;;;;;5007835;28;20042;-62
2023/02/17 10:13:46;;;;;;;3.00;0.60;;;;;;;;;;5018871;28;20075;-62
2023/02/17 10:16:17;;;;;;;2.90;0.70;;;;;;;;;;5012523;28;20048;-62
2023/02/17 10:18:47;;;;;;;3.97;0.77;;;;;;;;;;5008248;28;20090;-59
2023/02/17 10:21:20;;;;;;;1.98;0.60;;;;;;;;;;5009356;28;20050;-61
2023/02/17 10:23:47;;;;;;;;;;;;;;;;;;5008249;28;20187;-62
2023/02/17 10:26:16;;;;;;;1.83;0.60;;;;;;;;;;5008599;28;20299;-63
2023/02/17 10:28:46;;;;;;;1.75;0.60;;;;;;;;;;5009325;28;20099;-63
2023/02/17 10:31:15;;;;;;;0.85;0.35;;;;;;;;;;5007776;28;20045;-62
2023/02/17 10:33:47;;;;;;;0.88;0.40;;;;;;;;;;5006806;28;20049;-62
2023/02/17 10:36:23;;;;;;;1.85;0.50;;;;;;;;;;5008385;28;20111;-62
2023/02/17 10:38:55;;;;;;;1.55;0.40;;;;;;;;;;5006083;28;20068;-62
2023/02/17 10:41:36;;;;;;;1.15;0.50;;;;;;;;;;5005683;28;20073;-63
2023/02/17 10:44:06;;;;;;;2.28;0.57;;;;;;;;;;5009101;28;20684;-63
2023/02/17 10:46:33;;;;;;;1.55;0.50;;;;;;;;;;5006555;28;20087;-63
2023/02/17 10:49:00;;;;;;;1.30;0.40;;;;;;;;;;5008195;28;20045;-63
2023/02/17 10:51:29;;;;;;;1.95;0.55;;;;;;;;;;5006482;28;20048;-63
2023/02/17 10:54:07;;;;;;;3.00;0.52;;;;;;;;;;5007746;28;20477;-63
2023/02/17 10:56:48;;;;;;;2.03;0.60;;;;;;;;;;5007480;28;20064;-62
2023/02/17 10:59:21;;;;;;;0.60;0.40;;;;;;;;;;5008544;28;20046;-63
2023/02/17 11:01:48;;;;;;;2.95;0.50;;;;;;;;;;5017320;28;20099;-62
2023/02/17 11:04:15;;;;;;;2.38;0.43;;;;;;;;;;5015068;28;20046;-63
2023/02/17 11:06:49;;;;;;;3.15;0.57;;;;;;;;;;5015641;28;20080;-62
2023/02/17 11:09:27;;;;;;;0.88;0.43;;;;;;;;;;5014708;28;20086;-62
2023/02/17 11:12:01;;;;;;;2.97;0.40;;;;;;;;;;5009733;28;20048;-63
2023/02/17 11:14:29;;;;;;;2.20;0.60;;;;;;;;;;5016414;28;20445;-62
2023/02/17 11:17:03;;;;;;;1.77;0.50;;;;;;;;;;5006365;28;20489;-64
2023/02/17 11:19:29;;;;;;;;;;;;;;;;;;5006643;28;20417;-62
2023/02/17 11:21:57;;;;;;;0.85;0.40;;;;;;;;;;5013176;28;20154;-62
2023/02/17 11:24:24;;;;;;;0.90;0.40;;;;;;;;;;5013594;28;20104;-62
2023/02/17 11:27:00;;;;;;;2.40;0.40;;;;;;;;;;5005814;28;20414;-62
2023/02/17 11:29:27;;;;;;;1.00;0.43;;;;;;;;;;5006410;28;20049;-63
2023/02/17 11:32:03;;;;;;;0.95;0.40;;;;;;;;;;5006294;28;20123;-63
2023/02/17 11:34:33;;;;;;;2.03;0.68;;;;;;;;;;5006577;28;20042;-63
2023/02/17 11:37:19;;;;;;;0.65;0.30;;;;;;;;;;5008450;28;20604;-62
2023/02/17 11:39:47;;;;;;;1.05;0.43;;;;;;;;;;5004943;28;20054;-62
2023/02/17 11:42:17;;;;;;;1.02;0.40;;;;;;;;;;5005305;28;20133;-62
2023/02/17 11:44:43;;;;;;;0.75;0.45;;;;;;;;;;5010770;28;20442;-63
2023/02/17 11:47:25;;;;;;;0.80;0.40;;;;;;;;;;5017896;28;20235;-64
2023/02/17 11:50:04;;;;;;;1.65;0.50;;;;;;;;;;5012841;28;20699;-61
2023/02/17 11:52:40;;;;;;;0.75;0.30;;;;;;;;;;5011047;28;20105;-63
2023/02/17 11:55:21;;;;;;;1.10;0.40;;;;;;;;;;5009833;28;20080;-63
2023/02/17 11:58:08;;;;;;;1.73;0.40;;;;;;;;;;5006196;28;20049;-63
2023/02/17 12:00:45;;;;;;;1.20;0.40;;;;;;;;;;4991429;28;20474;-63
2023/02/17 12:03:20;;;;;;;0.47;0.30;;;;;;;;;;5014478;28;20052;-63
2023/02/17 12:05:47;;;;;;;1.63;0.50;;;;;;;;;;5015384;28;20041;-63
2023/02/17 12:08:22;;;;;;;0.85;0.40;;;;;;;;;;5009989;28;20068;-63
2023/02/17 12:11:07;;;;;;;1.48;0.50;;;;;;;;;;5016966;28;20036;-63
2023/02/17 12:13:33;;;;;;;2.33;0.60;;;;;;;;;;5005587;28;20081;-63
2023/02/17 12:16:14;;;;;;;3.15;0.60;;;;;;;;;;5004950;28;20410;-62
2023/02/17 12:18:53;;;;;;;1.60;0.57;;;;;;;;;;5005709;28;20042;-62
2023/02/17 12:21:40;;;;;;;1.30;0.50;;;;;;;;;;5005558;28;20414;-62
2023/02/17 12:24:29;;;;;;;2.78;0.90;;;;;;;;;;5006690;28;20076;-62
2023/02/17 12:27:03;;;;;;;1.98;0.52;;;;;;;;;;5018000;28;20044;-62
2023/02/17 12:29:40;;;;;;;2.40;0.85;;;;;;;;;;5008965;28;20029;-62
2023/02/17 12:32:18;;;;;;;3.70;1.00;;;;;;;;;;5002753;28;21060;-63
2023/02/17 12:34:45;;;;;;;4.10;1.10;;;;;;;;;;5007908;28;20140;-61
2023/02/17 12:37:21;;;;;;;3.80;0.90;;;;;;;;;;5005913;28;20044;-61
2023/02/17 12:39:51;;;;;;;2.58;0.80;;;;;;;;;;5017290;28;20042;-63
2023/02/17 12:42:22;;;;;;;3.17;0.65;;;;;;;;;;5010268;28;20045;-62
2023/02/17 12:45:02;;;;;;;2.45;0.60;;;;;;;;;;5020338;28;20045;-63
2023/02/17 12:47:32;;;;;;;5.95;1.50;;;;;;;;;;5009087;28;20061;-64
2023/02/17 12:50:04;;;;;;;4.90;1.10;;;;;;;;;;5009039;28;20144;-63
2023/02/17 12:52:34;;;;;;;2.40;0.55;;;;;;;;;;5007665;28;20435;-63
2023/02/17 12:55:04;;;;;;;1.05;0.40;;;;;;;;;;5008923;28;20088;-62
2023/02/17 12:57:39;;;;;;;3.25;1.02;;;;;;;;;;5009163;28;20483;-63
2023/02/17 13:00:21;;;;;;;4.70;0.60;;;;;;;;;;5007568;28;20516;-61
2023/02/17 13:02:48;;;;;;;1.52;0.50;;;;;;;;;;5009585;28;20046;-62
2023/02/17 13:05:26;;;;;;;3.03;0.60;;;;;;;;;;5010357;28;20037;-62
2023/02/17 13:07:59;;;;;;;1.77;0.60;;;;;;;;;;5021082;28;20697;-63
2023/02/17 13:10:25;;;;;;;;;;;;;;;;;;5010347;28;20182;-60
2023/02/17 13:12:56;;;;;;;2.63;0.75;;;;;;;;;;5009752;28;20293;-63
2023/02/17 13:15:28;;;;;;;1.40;0.57;;;;;;;;;;5008932;28;20136;-63
2023/02/17 13:18:01;;;;;;;3.22;0.80;;;;;;;;;;5007196;28;20038;-65
2023/02/17 13:20:37;;;;;;;2.88;0.80;;;;;;;;;;5008203;28;20556;-62
2023/02/17 13:23:10;;;;;;;1.65;0.50;;;;;;;;;;4991453;28;20052;-64
2023/02/17 13:25:37;;;;;;;5.00;1.40;;;;;;;;;;5006989;28;20128;-64
2023/02/17 13:28:16;;;;;;;4.47;1.00;;;;;;;;;;5007525;28;20068;-63
2023/02/17 13:30:44;;;;;;;1.80;0.60;;;;;;;;;;5008486;28;20049;-64
2023/02/17 13:33:20;;;;;;;4.63;1.38;;;;;;;;;;5007440;28;20045;-65
2023/02/17 13:35:47;;;;;;;2.53;0.85;;;;;;;;;;5020066;28;20445;-65
2023/02/17 13:38:25;;;;;;;4.90;1.05;;;;;;;;;;5012525;28;20053;-65
2023/02/17 13:40:51;;;;;;;0.85;0.40;;;;;;;;;;5000148;28;20048;-64
2023/02/17 13:43:19;;;;;;;2.22;0.75;;;;;;;;;;5010013;28;20533;-64
2023/02/17 13:46:00;;;;;;;5.85;0.70;;;;;;;;;;5018979;28;20857;-62
2023/02/17 13:48:28;;;;;;;1.33;0.50;;;;;;;;;;5018139;28;20538;-63
2023/02/17 13:50:56;;;;;;;11.73;0.80;;;;;;;;;;5015325;28;21459;-63
2023/02/17 13:53:25;;;;;;;3.30;0.70;;;;;;;;;;5005471;28;20054;-64
2023/02/17 13:55:52;;;;;;;5.13;0.88;;;;;;;;;;5006680;28;20038;-64
2023/02/17 13:58:27;;;;;;;4.15;0.93;;;;;;;;;;5007382;28;20058;-64
2023/02/17 14:00:53;;;;;;;2.70;0.68;;;;;;;;;;5017048;28;20048;-64
2023/02/17 14:03:25;;;;;;;2.88;0.75;;;;;;;;;;5011421;28;20065;-64
2023/02/17 14:05:56;;;;;;;2.95;0.80;;;;;;;;;;5016343;28;20041;-63
2023/02/17 14:08:32;;;;;;;9.07;0.82;;;;;;;;;;5012816;28;20071;-64
2023/02/17 14:11:04;;;;;;;8.43;1.20;;;;;;;;;;5008707;28;20044;-64
2023/02/17 14:13:31;;;;;;;9.65;2.10;;;;;;;;;;5006249;28;20076;-64
2023/02/17 14:15:58;;;;;;;3.53;1.00;;;;;;;;;;5007280;28;20107;-63
2023/02/17 14:18:30;;;;;;;4.55;1.30;;;;;;;;;;5005874;28;20038;-63
2023/02/17 14:21:01;;;;;;;5.57;1.33;;;;;;;;;;5006921;28;20048;-62
2023/02/17 14:23:27;;;;;;;4.85;1.08;;;;;;;;;;5005812;28;20581;-63
2023/02/17 14:25:55;;;;;;;4.68;0.98;;;;;;;;;;5006498;28;22321;-63
2023/02/17 14:28:27;;;;;;;0.57;0.32;;;;;;;;;;5007251;28;20688;-64
2023/02/17 14:30:53;;;;;;;5.68;0.82;;;;;;;;;;5009413;28;20167;-64
2023/02/17 14:33:22;;;;;;;2.58;0.73;;;;;;;;;;5007015;28;20371;-64
2023/02/17 14:35:53;;;;;;;7.55;1.08;;;;;;;;;;5008513;28;20045;-64
2023/02/17 14:38:36;;;;;;;9.50;1.10;;;;;;;;;;5006655;28;20045;-64
2023/02/17 14:41:03;;;;;;;6.13;1.30;;;;;;;;;;5007570;28;20053;-63
2023/02/17 14:43:30;;;;;;;7.88;1.13;;;;;;;;;;5004352;28;20073;-64
2023/02/17 14:45:56;;;;;;;8.00;1.50;;;;;;;;;;5008265;28;20084;-63
2023/02/17 14:48:24;;;;;;;7.32;1.30;;;;;;;;;;5006113;28;20050;-64
2023/02/17 14:50:52;;;;;;;7.00;1.10;;;;;;;;;;5007250;28;20042;-62
2023/02/17 14:53:30;;;;;;;5.53;1.55;;;;;;;;;;5009610;28;20064;-64
2023/02/17 14:56:02;;;;;;;4.40;1.90;;;;;;;;;;5026403;28;20036;-64
2023/02/17 14:58:29;;;;;;;5.10;1.83;;;;;;;;;;5024070;28;20037;-64
2023/02/17 15:00:55;;;;;;;5.00;1.58;;;;;;;;;;5025478;28;20131;-63